Time;durP1;ratioP1;P1;durP2;ratioP2;P2;SDS_P1;SDS_P2;PMS_P1;PMS_P2;Temp;Humidity;BMP_temperature;BMP_pressure;BME280_temperature;BME280_humidity;BME280_pressure;Samples;Min_cycle;Max_cycle;Signal;HPM_P1;HPM_P2
2022/05/03 00:00:47;;;;;;;6.65;4.90;;;;;;;11.28;56.62;101807.84;4988100;28;20483;-90
2022/05/03 00:03:23;;;;;;;6.30;4.82;;;;;;;11.20;57.14;101808.94;4992594;28;20038;-90
2022/05/03 00:06:22;;;;;;;6.45;4.93;;;;;;;11.20;56.73;101824.81;4973068;28;20073;-88
2022/05/03 00:08:53;;;;;;;6.68;4.75;;;;;;;10.93;57.86;101815.81;4977717;28;20026;-88
2022/05/03 00:11:29;;;;;;;6.95;5.18;;;;;;;11.10;57.15;101830.41;4975701;28;20033;-88
2022/05/03 00:13:54;;;;;;;5.57;4.72;;;;;;;11.17;57.08;101816.94;4975914;28;20042;-88
2022/05/03 00:16:20;;;;;;;5.85;4.68;;;;;;;11.22;56.11;101819.47;4975800;28;20026;-89
2022/05/03 00:18:46;;;;;;;6.50;4.60;;;;;;;11.12;55.91;101789.75;4974923;28;20081;-89
2022/05/03 00:21:12;;;;;;;5.32;4.28;;;;;;;11.24;55.46;101799.13;4972407;28;20552;-88
2022/05/03 00:23:37;;;;;;;5.15;4.53;;;;;;;11.25;56.67;101803.50;4977464;28;20033;-89
2022/05/03 00:26:06;;;;;;;7.60;5.00;;;;;;;11.15;57.86;101796.75;4990367;28;20632;-90
2022/05/03 00:28:32;;;;;;;5.88;4.85;;;;;;;11.01;57.84;101790.94;4971156;28;20125;-90
2022/05/03 00:30:58;;;;;;;5.97;4.40;;;;;;;10.93;59.31;101785.84;4975497;28;20129;-88
2022/05/03 00:33:24;;;;;;;5.78;4.53;;;;;;;10.89;59.25;101786.84;4973456;28;20018;-88
2022/05/03 00:35:50;;;;;;;6.60;4.65;;;;;;;10.99;56.14;101798.91;4975364;28;20270;-87
2022/05/03 00:38:15;;;;;;;5.47;4.35;;;;;;;10.98;55.81;101790.09;4974160;28;20034;-89
2022/05/03 00:40:47;;;;;;;6.07;4.55;;;;;;;11.08;55.81;101809.25;4969749;28;20030;-90
2022/05/03 00:43:30;;;;;;;7.20;4.35;;;;;;;11.12;54.99;101804.75;4969781;28;20029;-88
2022/05/03 00:46:03;;;;;;;8.32;4.78;;;;;;;11.04;57.18;101796.13;4990547;28;20045;-89
2022/05/03 00:49:03;;;;;;;6.53;5.05;;;;;;;11.04;55.71;101810.25;4994169;28;20029;-87
2022/05/03 00:51:53;;;;;;;5.32;4.43;;;;;;;10.92;56.47;101802.66;4983844;28;20052;-90
2022/05/03 00:54:38;;;;;;;7.97;4.82;;;;;;;10.88;56.75;101809.78;4990839;28;20505;-88
2022/05/03 00:57:22;;;;;;;7.38;4.57;;;;;;;10.87;57.28;101812.47;4991182;28;20070;-89
2022/05/03 01:00:09;;;;;;;7.75;5.03;;;;;;;10.55;56.61;101800.94;4988480;28;20092;-89
2022/05/03 01:02:57;;;;;;;6.47;5.05;;;;;;;10.33;59.05;101805.84;4973533;28;20044;-89
2022/05/03 01:05:28;;;;;;;7.75;4.80;;;;;;;10.15;58.42;101791.25;4986875;28;20532;-88
2022/05/03 01:08:07;;;;;;;6.60;4.50;;;;;;;10.37;57.35;101810.16;4969681;28;20466;-89
2022/05/03 01:10:39;;;;;;;7.25;5.00;;;;;;;10.17;58.96;101781.53;4988535;28;20026;-88
2022/05/03 01:13:24;;;;;;;;;;;;;;;10.47;56.52;101809.03;4976481;28;20050;-90
2022/05/03 01:15:58;;;;;;;7.53;4.50;;;;;;;10.15;61.27;101804.47;4994691;28;19917;-88
2022/05/03 01:18:37;;;;;;;6.93;4.75;;;;;;;10.01;60.90;101798.63;4977476;28;20053;-89
2022/05/03 01:21:23;;;;;;;6.75;4.57;;;;;;;9.89;60.21;101798.94;4972187;28;20041;-87
2022/05/03 01:24:19;;;;;;;5.63;4.28;;;;;;;9.77;61.83;101807.09;4977168;28;20114;-88
2022/05/03 01:27:00;;;;;;;5.47;4.50;;;;;;;9.69;61.54;101800.19;4973184;28;20037;-89
2022/05/03 01:29:32;;;;;;;9.77;4.75;;;;;;;9.64;62.88;101809.13;4986241;28;20046;-88
2022/05/03 01:32:08;;;;;;;6.97;5.15;;;;;;;9.56;61.96;101803.13;4971698;28;20087;-88
2022/05/03 01:34:35;;;;;;;6.53;4.70;;;;;;;9.45;61.57;101788.38;4990534;28;20040;-89
2022/05/03 01:37:00;;;;;;;5.55;4.30;;;;;;;9.60;62.60;101802.16;4987664;28;20034;-88
2022/05/03 01:39:48;;;;;;;4.97;4.47;;;;;;;9.68;62.35;101801.09;4968823;28;20100;-88
2022/05/03 01:42:28;;;;;;;5.47;4.55;;;;;;;9.77;60.90;101805.31;4987977;28;20041;-90
2022/05/03 01:45:08;;;;;;;5.75;4.47;;;;;;;9.83;60.14;101797.25;4973095;28;20114;-88
2022/05/03 01:47:56;;;;;;;6.10;4.15;;;;;;;9.95;58.96;101806.72;4973905;28;20025;-88
2022/05/03 01:50:30;;;;;;;7.15;4.60;;;;;;;9.95;60.16;101809.34;4975076;28;20065;-87
2022/05/03 01:53:23;;;;;;;6.57;4.57;;;;;;;10.00;60.36;101807.47;4971625;28;20489;-91
2022/05/03 01:55:48;;;;;;;5.95;4.47;;;;;;;9.96;58.40;101800.50;4970870;28;20033;-88
2022/05/03 01:58:25;;;;;;;7.95;4.60;;;;;;;9.84;58.08;101785.81;4992513;28;20022;-90
2022/05/03 02:01:25;;;;;;;6.95;4.68;;;;;;;9.94;57.39;101802.34;4989616;28;20026;-88
2022/05/03 02:03:58;;;;;;;7.78;4.90;;;;;;;9.81;59.95;101788.50;4972305;28;20573;-88
2022/05/03 02:06:55;;;;;;;8.27;4.38;;;;;;;9.53;59.04;101755.69;4971467;28;20037;-89
2022/05/03 02:09:28;;;;;;;6.47;4.82;;;;;;;9.37;61.45;101781.50;4989057;28;20026;-88
2022/05/03 02:12:12;;;;;;;6.85;5.10;;;;;;;9.27;61.29;101798.44;4971263;28;20381;-88
2022/05/03 02:14:50;;;;;;;6.90;4.80;;;;;;;9.04;62.58;101781.25;4975898;28;20039;-87
2022/05/03 02:17:37;;;;;;;6.10;4.47;;;;;;;9.26;61.71;101787.00;4976421;28;20029;-88
2022/05/03 02:20:29;;;;;;;7.30;4.65;;;;;;;9.38;59.97;101786.78;4993145;28;20042;-91
2022/05/03 02:23:07;;;;;;;;;;;;;;;9.52;57.85;101794.41;4975124;28;20030;-88
2022/05/03 02:25:39;;;;;;;5.45;4.13;;;;;;;9.27;61.73;101799.28;4971218;28;19920;-88
2022/05/03 02:28:22;;;;;;;9.18;4.78;;;;;;;9.13;60.40;101785.50;4971547;28;20034;-90
2022/05/03 02:30:50;;;;;;;6.13;3.92;;;;;;;9.19;60.77;101799.47;4986000;28;20390;-88
2022/05/03 02:33:42;;;;;;;4.70;4.13;;;;;;;9.26;60.41;101800.19;4974141;28;20121;-90
2022/05/03 02:36:13;;;;;;;6.90;5.10;;;;;;;9.33;62.61;101804.47;4977273;28;20046;-88
2022/05/03 02:39:05;;;;;;;7.30;4.45;;;;;;;9.45;59.89;101798.94;4969418;28;20026;-87
2022/05/03 02:41:38;;;;;;;4.78;4.20;;;;;;;9.41;60.22;101788.47;4993058;28;20393;-88
2022/05/03 02:44:04;;;;;;;6.00;4.15;;;;;;;9.34;61.18;101778.94;4974983;28;20440;-88
2022/05/03 02:47:00;;;;;;;7.15;4.93;;;;;;;9.43;60.82;101794.59;4995314;28;20643;-88
2022/05/03 02:49:53;;;;;;;7.53;5.00;;;;;;;9.39;60.93;101792.91;4974293;28;20053;-88
2022/05/03 02:52:31;;;;;;;6.32;4.50;;;;;;;9.29;61.58;101794.00;4977217;28;20038;-89
2022/05/03 02:55:18;;;;;;;6.57;4.78;;;;;;;9.08;62.26;101793.50;4978242;28;20436;-87
2022/05/03 02:58:11;;;;;;;7.18;4.90;;;;;;;8.98;63.53;101796.34;4974155;28;20113;-87
2022/05/03 03:03:54;;;;;;;6.80;4.80;;;;;;;8.89;62.24;101795.59;4984738;28;20428;-88
2022/05/03 03:06:22;;;;;;;7.72;5.35;;;;;;;8.87;65.21;101791.28;4976587;28;20041;-88
2022/05/03 03:08:50;;;;;;;5.65;4.55;;;;;;;8.77;61.68;101782.66;4977781;28;20040;-88
2022/05/03 03:11:22;;;;;;;6.20;5.07;;;;;;;8.63;64.30;101769.72;4996104;28;20045;-88
2022/05/03 03:13:56;;;;;;;;;;;;;;;8.90;61.10;101791.19;4991541;28;20030;-88
2022/05/03 03:16:30;;;;;;;6.05;4.47;;;;;;;8.73;61.02;101788.00;4980609;28;19913;-88
2022/05/03 03:18:58;;;;;;;9.15;4.85;;;;;;;8.71;64.71;101793.28;4990216;28;20501;-88
2022/05/03 03:21:31;;;;;;;6.70;4.68;;;;;;;8.57;64.58;101775.06;4976719;28;20029;-87
2022/05/03 03:23:59;;;;;;;7.80;5.22;;;;;;;8.59;64.80;101778.56;4979499;28;20514;-88
2022/05/03 03:26:26;;;;;;;5.90;4.53;;;;;;;8.63;61.08;101780.25;4990443;28;20117;-89
2022/05/03 03:28:54;;;;;;;5.82;4.38;;;;;;;8.67;63.21;101795.13;4974600;28;20033;-87
2022/05/03 03:31:22;;;;;;;8.65;4.75;;;;;;;8.57;63.31;101777.72;4991495;28;20409;-87
2022/05/03 03:33:48;;;;;;;5.10;4.43;;;;;;;8.57;63.51;101785.63;4973093;28;20038;-90
2022/05/03 03:36:16;;;;;;;6.82;4.78;;;;;;;8.47;65.21;101781.41;4978252;28;20091;-88
2022/05/03 03:38:47;;;;;;;8.88;4.80;;;;;;;8.33;64.09;101788.63;4996077;28;20967;-87
2022/05/03 03:41:12;;;;;;;7.15;4.65;;;;;;;8.28;62.90;101796.59;4993299;28;20026;-88
2022/05/03 03:43:38;;;;;;;8.30;4.90;;;;;;;8.15;63.06;101766.94;4974807;28;20041;-87
2022/05/03 03:46:03;;;;;;;8.52;4.78;;;;;;;8.22;62.90;101778.25;4974383;28;20034;-87
2022/05/03 03:48:28;;;;;;;5.20;4.32;;;;;;;8.26;62.67;101773.81;4993291;28;20085;-87
2022/05/03 03:50:55;;;;;;;6.07;4.20;;;;;;;8.35;62.13;101784.22;4988641;28;20030;-88
2022/05/03 03:53:21;;;;;;;6.38;4.53;;;;;;;8.32;63.95;101774.56;4976735;28;20049;-87
2022/05/03 03:55:48;;;;;;;6.20;4.65;;;;;;;8.35;63.14;101794.75;4976614;28;20046;-88
2022/05/03 03:58:14;;;;;;;6.07;4.38;;;;;;;8.19;63.63;101787.06;4994000;28;20038;-87
2022/05/03 04:00:40;;;;;;;7.97;5.05;;;;;;;7.99;64.45;101781.22;4971612;28;20271;-86
2022/05/03 04:03:07;;;;;;;7.82;5.47;;;;;;;7.90;65.61;101774.31;4976042;28;20564;-86
2022/05/03 04:05:35;;;;;;;6.63;5.13;;;;;;;7.84;65.09;101763.03;4993998;28;20065;-86
2022/05/03 04:08:01;;;;;;;6.50;5.15;;;;;;;7.98;62.95;101784.75;4979746;28;20037;-86
2022/05/03 04:10:26;;;;;;;7.45;5.20;;;;;;;7.99;63.16;101773.34;4972535;28;20398;-90
2022/05/03 04:12:51;;;;;;;5.82;4.50;;;;;;;8.03;63.58;101767.13;4976289;28;20034;-86
2022/05/03 04:15:17;;;;;;;7.82;4.88;;;;;;;8.10;63.10;101781.06;4977492;28;20026;-86
2022/05/03 04:17:43;;;;;;;8.13;4.97;;;;;;;8.06;64.39;101761.78;4993507;28;20045;-89
2022/05/03 04:20:09;;;;;;;7.47;4.88;;;;;;;8.05;66.49;101765.34;4990258;28;20508;-86
2022/05/03 04:22:35;;;;;;;7.53;4.93;;;;;;;8.08;64.17;101782.88;4975831;28;20038;-89
2022/05/03 04:25:01;;;;;;;9.43;5.25;;;;;;;8.07;63.32;101781.13;4971991;28;20036;-88
2022/05/03 04:27:27;;;;;;;6.80;5.43;;;;;;;8.12;65.04;101792.47;4996245;28;20038;-87
2022/05/03 04:29:53;;;;;;;5.68;4.68;;;;;;;8.04;66.08;101800.47;4972336;28;20022;-89
2022/05/03 04:32:19;;;;;;;5.95;5.00;;;;;;;7.87;63.17;101765.59;4973937;28;20081;-88
2022/05/03 04:34:44;;;;;;;8.35;5.53;;;;;;;7.88;65.72;101775.22;4992724;28;20037;-87
2022/05/03 04:37:10;;;;;;;6.65;5.15;;;;;;;8.05;62.69;101793.44;4973937;28;20018;-88
2022/05/03 04:39:35;;;;;;;7.82;5.85;;;;;;;7.99;63.70;101775.09;4990364;28;20409;-87
2022/05/03 04:42:01;;;;;;;6.78;4.90;;;;;;;8.08;63.29;101798.66;4974416;28;20706;-87
2022/05/03 04:44:27;;;;;;;7.05;5.95;;;;;;;7.87;64.01;101769.09;4991135;28;20022;-88
2022/05/03 04:46:52;;;;;;;7.63;5.28;;;;;;;8.00;63.35;101796.13;4974107;28;20056;-87
2022/05/03 04:49:17;;;;;;;7.22;5.03;;;;;;;7.98;63.70;101808.47;4990557;28;20451;-88
2022/05/03 04:51:43;;;;;;;5.88;5.03;;;;;;;7.92;65.00;101798.00;4970936;28;20177;-88
2022/05/03 04:54:08;;;;;;;8.50;5.00;;;;;;;8.04;64.14;101800.47;4976653;28;20037;-88
2022/05/03 04:56:35;;;;;;;8.27;5.40;;;;;;;8.06;63.72;101793.41;4974038;28;20053;-86
2022/05/03 04:59:01;;;;;;;9.90;6.10;;;;;;;8.11;64.22;101804.78;4970628;28;20392;-87
2022/05/03 05:01:27;;;;;;;6.20;5.25;;;;;;;8.23;63.79;101813.38;4993387;28;20497;-90
2022/05/03 05:03:52;;;;;;;7.03;5.70;;;;;;;8.23;63.93;101810.75;4990417;28;20522;-90
2022/05/03 05:06:19;;;;;;;8.43;5.07;;;;;;;8.25;64.65;101808.94;4991954;28;20034;-87
2022/05/03 05:08:44;;;;;;;8.85;6.50;;;;;;;8.25;63.69;101801.03;4972375;28;20124;-88
2022/05/03 05:11:11;;;;;;;8.68;5.75;;;;;;;8.35;64.56;101807.94;4972932;28;20441;-87
2022/05/03 05:13:37;;;;;;;9.10;5.35;;;;;;;8.43;63.60;101806.06;4974908;28;20120;-89
2022/05/03 05:16:05;;;;;;;8.18;5.65;;;;;;;8.48;64.51;101806.84;4974323;28;20040;-88
2022/05/03 05:18:30;;;;;;;9.85;5.40;;;;;;;8.54;65.09;101808.53;4988932;28;20481;-88
2022/05/03 05:20:56;;;;;;;9.40;5.75;;;;;;;8.54;65.37;101814.69;4974881;28;20111;-87
2022/05/03 05:23:22;;;;;;;8.43;5.50;;;;;;;8.53;64.02;101799.72;4990769;28;20032;-88
2022/05/03 05:25:49;;;;;;;7.20;5.50;;;;;;;8.68;63.49;101812.69;4978784;28;20034;-88
2022/05/03 05:28:16;;;;;;;8.98;6.30;;;;;;;8.80;63.17;101816.00;4991910;28;20683;-88
2022/05/03 05:30:42;;;;;;;11.98;5.50;;;;;;;8.73;62.55;101791.50;4975438;28;20022;-88
2022/05/03 05:33:08;;;;;;;8.52;5.97;;;;;;;8.94;62.86;101835.09;4972397;28;20490;-87
2022/05/03 05:35:35;;;;;;;8.05;5.97;;;;;;;8.85;63.79;101830.84;4990646;28;20029;-89
2022/05/03 05:38:00;;;;;;;7.13;5.82;;;;;;;8.86;62.76;101832.59;4973248;28;20548;-88
2022/05/03 05:40:25;;;;;;;10.73;6.57;;;;;;;8.91;62.14;101832.53;4989690;28;20049;-89
2022/05/03 05:42:52;;;;;;;8.55;5.80;;;;;;;8.93;62.75;101836.00;4971142;28;20050;-89
2022/05/03 05:45:17;;;;;;;7.47;6.07;;;;;;;9.00;65.00;101844.66;4987243;28;20061;-88
2022/05/03 05:47:42;;;;;;;8.93;5.72;;;;;;;9.01;62.80;101844.66;4978918;28;20038;-89
2022/05/03 05:50:09;;;;;;;9.95;6.20;;;;;;;8.99;62.89;101835.88;4971411;28;20416;-88
2022/05/03 05:55:20;;;;;;;10.13;6.38;;;;;;;9.18;62.78;101846.97;4958860;28;20115;-88
2022/05/03 05:57:45;;;;;;;9.93;6.35;;;;;;;9.20;62.75;101839.91;4976770;28;20046;-88
2022/05/03 06:00:11;;;;;;;13.23;6.32;;;;;;;9.18;62.70;101829.34;4989202;28;20128;-89
2022/05/03 06:02:37;;;;;;;11.77;7.00;;;;;;;9.23;64.71;101831.91;4992255;28;20034;-88
2022/05/03 06:05:03;;;;;;;10.77;6.82;;;;;;;9.25;63.49;101827.50;4977672;28;20040;-88
2022/05/03 06:07:29;;;;;;;12.38;6.28;;;;;;;9.39;62.66;101851.00;4991759;28;20400;-88
2022/05/03 06:09:54;;;;;;;12.00;6.97;;;;;;;9.52;65.08;101852.50;4971405;28;20026;-89
2022/05/03 06:12:19;;;;;;;9.43;6.85;;;;;;;9.44;64.71;101828.00;4988405;28;20038;-88
2022/05/03 06:14:45;;;;;;;15.13;6.72;;;;;;;9.65;61.79;101835.50;4994449;28;20032;-89
2022/05/03 06:17:10;;;;;;;9.30;6.68;;;;;;;9.64;62.27;101825.81;4976472;28;20030;-88
2022/05/03 06:19:35;;;;;;;10.02;7.85;;;;;;;9.85;63.38;101850.94;4991686;28;20438;-88
2022/05/03 06:22:00;;;;;;;9.73;6.25;;;;;;;9.99;62.84;101845.38;4995606;28;20041;-87
2022/05/03 06:24:26;;;;;;;9.57;6.25;;;;;;;10.20;60.72;101859.88;4977749;28;20038;-89
2022/05/03 06:26:51;;;;;;;11.05;6.90;;;;;;;10.30;61.29;101848.22;4992129;28;20026;-88
2022/05/03 06:29:16;;;;;;;11.65;6.60;;;;;;;10.38;59.46;101840.97;4995291;28;20022;-88
2022/05/03 06:31:42;;;;;;;10.18;5.63;;;;;;;10.56;58.86;101844.09;4977934;28;20061;-87
2022/05/03 06:34:08;;;;;;;11.60;6.53;;;;;;;10.72;59.95;101851.63;4996578;28;20088;-89
2022/05/03 06:36:35;;;;;;;14.18;6.40;;;;;;;10.92;58.47;101847.63;4998572;28;20037;-88
2022/05/03 06:39:01;;;;;;;12.13;6.78;;;;;;;11.02;56.86;101845.59;4992760;28;20026;-88
2022/05/03 06:41:27;;;;;;;11.38;5.63;;;;;;;11.22;56.37;101856.53;4978293;28;20029;-88
2022/05/03 06:43:52;;;;;;;8.07;5.78;;;;;;;11.33;56.71;101841.25;4996284;28;20030;-88
2022/05/03 06:46:18;;;;;;;9.85;6.05;;;;;;;11.39;55.26;101826.97;4977594;28;21338;-88
2022/05/03 06:48:43;;;;;;;7.93;5.82;;;;;;;11.69;55.44;101851.69;4977904;28;20064;-87
2022/05/03 06:51:09;;;;;;;9.95;5.70;;;;;;;11.70;53.90;101833.13;4992492;28;20371;-88
2022/05/03 06:53:34;;;;;;;8.55;5.43;;;;;;;11.92;53.38;101840.47;4979460;28;20631;-88
2022/05/03 06:55:59;;;;;;;9.07;5.45;;;;;;;12.02;53.32;101839.28;4989788;28;20049;-90
2022/05/03 06:58:25;;;;;;;7.43;4.85;;;;;;;12.29;51.38;101860.56;4995158;28;20389;-88
2022/05/03 07:00:50;;;;;;;6.05;4.50;;;;;;;12.40;49.97;101845.16;4976820;28;20508;-87
2022/05/03 07:03:17;;;;;;;7.38;5.10;;;;;;;12.59;50.39;101851.66;4992460;28;20477;-90
2022/05/03 07:05:43;;;;;;;7.65;4.20;;;;;;;12.72;49.06;101847.66;4991572;28;20033;-89
2022/05/03 07:08:09;;;;;;;7.13;3.83;;;;;;;12.97;46.46;101860.13;4974553;28;20386;-88
2022/05/03 07:10:35;;;;;;;7.32;4.18;;;;;;;13.05;45.54;101844.78;4976795;28;20025;-88
2022/05/03 07:13:00;;;;;;;7.15;4.25;;;;;;;13.17;46.29;101848.81;4975584;28;20410;-89
2022/05/03 07:15:27;;;;;;;7.13;4.15;;;;;;;13.38;45.59;101857.84;4994362;28;20030;-87
2022/05/03 07:23:20;;;;;;;6.05;4.22;;;;;;;13.74;44.24;101861.81;4992438;28;20455;-88
2022/05/03 07:25:46;;;;;;;7.00;4.32;;;;;;;13.70;44.53;101854.00;4993781;28;20026;-88
2022/05/03 07:28:11;;;;;;;7.60;4.47;;;;;;;13.84;44.91;101867.66;4976052;28;20234;-87
2022/05/03 07:30:37;;;;;;;6.38;4.07;;;;;;;13.98;43.57;101868.00;4992056;28;20505;-88
2022/05/03 07:33:03;;;;;;;8.00;4.47;;;;;;;14.04;42.97;101856.28;4986768;28;20030;-87
2022/05/03 07:35:28;;;;;;;5.68;3.70;;;;;;;14.20;41.20;101868.06;4993775;28;20087;-89
2022/05/03 07:37:54;;;;;;;6.20;3.67;;;;;;;14.43;41.91;101859.16;4974209;28;20034;-88
2022/05/03 07:40:20;;;;;;;6.70;3.53;;;;;;;14.95;39.21;101869.50;4974696;28;20027;-89
2022/05/03 07:42:46;;;;;;;4.63;3.22;;;;;;;15.47;39.43;101869.94;4994380;28;20061;-89
2022/05/03 07:45:12;;;;;;;4.72;3.05;;;;;;;15.99;37.00;101870.25;4988067;28;20024;-87
2022/05/03 07:47:37;;;;;;;4.65;3.00;;;;;;;16.28;34.73;101869.78;4978030;28;20099;-87
2022/05/03 07:50:06;;;;;;;4.75;2.95;;;;;;;16.45;35.07;101866.28;4974840;28;20018;-87
2022/05/03 07:52:31;;;;;;;4.45;2.95;;;;;;;16.89;34.75;101865.09;4974123;28;20355;-88
2022/05/03 07:54:57;;;;;;;3.08;2.75;;;;;;;17.43;33.57;101860.50;4991877;28;20104;-87
2022/05/03 07:57:23;;;;;;;4.05;2.65;;;;;;;17.79;33.33;101857.72;4974624;28;20410;-88
2022/05/03 07:59:50;;;;;;;5.00;3.13;;;;;;;18.28;32.36;101860.38;4976657;28;20393;-88
2022/05/03 08:02:15;;;;;;;4.90;2.70;;;;;;;18.57;31.39;101858.72;4990018;28;20515;-88
2022/05/03 08:04:40;;;;;;;3.60;3.08;;;;;;;18.80;31.72;101860.97;4991817;28;20030;-88
2022/05/03 08:07:06;;;;;;;4.70;2.63;;;;;;;19.10;31.81;101852.91;4973584;28;20121;-87
2022/05/03 08:09:32;;;;;;;3.67;3.03;;;;;;;19.48;30.39;101851.53;4989790;28;20050;-88
2022/05/03 08:12:00;;;;;;;12.77;3.50;;;;;;;19.80;29.88;101861.16;4969387;28;20655;-87
2022/05/03 08:14:27;;;;;;;3.72;3.10;;;;;;;20.06;28.88;101850.63;4986877;28;20026;-87
2022/05/03 08:16:53;;;;;;;6.53;3.35;;;;;;;20.29;28.67;101844.63;4965920;28;20401;-86
2022/05/03 08:19:18;;;;;;;6.35;3.53;;;;;;;20.51;27.35;101859.34;4984621;28;20023;-86
2022/05/03 08:21:43;;;;;;;3.60;3.03;;;;;;;20.77;27.04;101863.88;4965435;28;20369;-87
2022/05/03 08:24:09;;;;;;;5.53;3.20;;;;;;;20.88;27.78;101864.00;4962621;28;20168;-88
2022/05/03 08:26:34;;;;;;;4.65;3.40;;;;;;;21.14;27.10;101858.69;4988373;28;20366;-88
2022/05/03 08:29:00;;;;;;;6.07;4.13;;;;;;;21.69;28.15;101871.03;4986253;28;20658;-88
2022/05/03 08:31:25;;;;;;;6.47;4.25;;;;;;;22.26;26.90;101872.38;4989940;28;20045;-87
2022/05/03 08:33:50;;;;;;;5.55;3.45;;;;;;;22.66;27.39;101871.16;4987666;28;20034;-89
2022/05/03 08:36:16;;;;;;;5.47;3.75;;;;;;;23.23;25.35;101874.13;4974793;28;20034;-87
2022/05/03 08:44:12;;;;;;;12.13;5.10;;;;;;;23.81;24.32;101880.34;4992640;28;20581;-88
2022/05/03 08:46:39;;;;;;;6.72;4.07;;;;;;;23.86;24.34;101868.19;4972131;28;20030;-87
2022/05/03 08:49:05;;;;;;;6.75;4.93;;;;;;;24.19;25.24;101872.72;4977953;28;20036;-86
2022/05/03 08:51:32;;;;;;;9.20;4.60;;;;;;;24.83;24.88;101871.97;4989327;28;20056;-86
2022/05/03 08:54:01;;;;;;;8.85;5.60;;;;;;;24.80;24.24;101876.78;4969809;28;21057;-88
2022/05/03 08:56:28;;;;;;;6.90;4.80;;;;;;;24.95;24.59;101872.81;4990395;28;20057;-86
2022/05/03 08:58:54;;;;;;;6.95;5.63;;;;;;;25.32;24.00;101875.97;4994279;28;20018;-86
2022/05/03 09:01:20;;;;;;;7.43;5.38;;;;;;;25.36;23.48;101871.97;4992724;28;20042;-86
2022/05/03 09:03:45;;;;;;;8.10;5.45;;;;;;;25.67;24.39;101872.03;4974268;28;20108;-87
2022/05/03 09:06:11;;;;;;;6.93;5.13;;;;;;;26.16;23.65;101873.97;4976735;28;20018;-86
2022/05/03 09:08:37;;;;;;;5.63;5.00;;;;;;;26.66;23.30;101862.25;4969865;28;20037;-86
2022/05/03 09:11:16;;;;;;;9.30;5.20;;;;;;;27.27;24.27;101875.53;4987605;28;21680;-87
2022/05/03 09:13:43;;;;;;;6.43;5.43;;;;;;;27.41;21.47;101869.63;4981930;28;20516;-86
2022/05/03 09:16:16;;;;;;;8.00;5.60;;;;;;;27.42;22.83;101865.94;4968459;28;20030;-86
2022/05/03 09:18:44;;;;;;;7.57;5.20;;;;;;;27.39;22.66;101868.09;4978054;28;20118;-88
2022/05/03 09:24:05;;;;;;;7.85;5.63;;;;;;;27.55;21.73;101875.63;4990350;28;20529;-86
2022/05/03 09:26:32;;;;;;;5.93;5.20;;;;;;;27.84;21.44;101881.88;4976950;28;20030;-86
2022/05/03 09:29:08;;;;;;;5.95;5.35;;;;;;;27.60;22.81;101882.31;4969265;28;20034;-87
2022/05/03 09:31:50;;;;;;;7.93;4.55;;;;;;;27.48;24.25;101872.66;4991491;28;20041;-86
2022/05/03 09:34:26;;;;;;;5.55;4.82;;;;;;;27.37;23.30;101872.78;4973408;28;20037;-88
2022/05/03 09:36:54;;;;;;;6.10;5.28;;;;;;;27.37;23.21;101868.25;4990445;28;20035;-87
2022/05/03 09:39:27;;;;;;;6.82;5.38;;;;;;;26.74;23.38;101878.69;4976187;28;20046;-87
2022/05/03 09:42:13;;;;;;;9.27;6.60;;;;;;;26.30;24.45;101870.03;4971662;28;20026;-87
2022/05/03 09:44:54;;;;;;;7.13;4.53;;;;;;;26.25;25.77;101879.53;4988828;28;20023;-87
2022/05/03 09:47:23;;;;;;;5.68;5.07;;;;;;;26.13;25.15;101876.09;4974711;28;20621;-87
2022/05/03 09:49:48;;;;;;;8.10;4.60;;;;;;;26.10;26.28;101879.94;4972442;28;20039;-87
2022/05/03 09:52:29;;;;;;;6.10;4.50;;;;;;;26.12;25.95;101874.38;4971911;28;20501;-87
2022/05/03 09:55:03;;;;;;;7.50;5.25;;;;;;;25.89;25.21;101873.72;4974098;28;20034;-86
2022/05/03 09:57:31;;;;;;;8.27;5.10;;;;;;;25.64;25.76;101872.28;4978690;28;20060;-86
2022/05/03 09:59:57;;;;;;;15.27;4.30;;;;;;;25.63;27.17;101874.13;4972337;28;20080;-86
2022/05/03 10:02:28;;;;;;;7.90;5.35;;;;;;;25.55;26.60;101873.09;4991338;28;20034;-87
2022/05/03 10:04:58;;;;;;;8.35;6.10;;;;;;;25.48;26.94;101872.78;4990734;28;20041;-87
2022/05/03 10:07:25;;;;;;;8.35;5.90;;;;;;;25.69;26.38;101872.72;4971021;28;20032;-86
2022/05/03 10:09:51;;;;;;;6.60;5.90;;;;;;;25.67;25.92;101863.91;4993321;28;20125;-86
2022/05/03 10:12:18;;;;;;;12.15;6.03;;;;;;;25.65;26.57;101876.72;4988899;28;20105;-86
2022/05/03 10:14:46;;;;;;;6.97;4.22;;;;;;;25.85;25.11;101866.88;4987935;28;20030;-87
2022/05/03 10:23:01;;;;;;;5.60;4.40;;;;;;;26.15;25.70;101855.13;4957705;28;20085;-88
2022/05/03 10:25:41;;;;;;;6.47;4.72;;;;;;;26.53;26.45;101858.94;4965548;28;20034;-87
2022/05/03 10:28:07;;;;;;;9.95;5.35;;;;;;;26.84;24.94;101849.69;4989588;28;20042;-86
2022/05/03 10:30:34;;;;;;;86.13;11.30;;;;;;;27.08;23.96;101864.66;4967189;28;20088;-88
2022/05/03 10:33:21;;;;;;;10.30;5.35;;;;;;;27.25;25.38;101855.81;4989578;28;20034;-87
2022/05/03 10:35:50;;;;;;;5.95;5.35;;;;;;;27.05;24.21;101846.81;4990024;28;20081;-87
2022/05/03 10:38:35;;;;;;;6.68;5.53;;;;;;;27.26;25.94;101846.66;4991414;28;20541;-88
2022/05/03 10:41:02;;;;;;;7.22;5.03;;;;;;;27.46;23.63;101842.91;4968404;28;20536;-87
2022/05/03 10:43:27;;;;;;;5.93;5.35;;;;;;;26.66;24.14;101844.09;4987609;28;20033;-86
2022/05/03 10:46:07;;;;;;;7.43;5.28;;;;;;;27.24;25.71;101837.81;4973560;28;20581;-89
2022/05/03 10:48:34;;;;;;;7.40;5.80;;;;;;;27.49;23.02;101830.88;4985567;28;20034;-88
2022/05/03 10:51:08;;;;;;;7.30;6.35;;;;;;;27.11;25.04;101834.56;4973183;28;20117;-88
2022/05/03 10:53:37;;;;;;;9.18;6.25;;;;;;;27.09;23.99;101833.84;4992529;28;20558;-88
2022/05/03 10:56:17;;;;;;;9.27;6.43;;;;;;;26.87;23.79;101824.13;4994005;28;20053;-88
2022/05/03 10:58:44;;;;;;;10.80;5.30;;;;;;;26.96;25.50;101828.69;4975308;28;20044;-89
2022/05/03 11:01:21;;;;;;;9.55;5.78;;;;;;;26.23;24.53;101830.91;4992631;28;20037;-88
2022/05/03 11:03:46;;;;;;;5.60;5.00;;;;;;;26.35;25.35;101835.22;4993681;28;20038;-87
2022/05/03 11:06:25;;;;;;;7.60;6.20;;;;;;;26.64;24.54;101827.13;4992866;28;20040;-87
2022/05/03 11:11:39;;;;;;;6.00;5.47;;;;;;;26.77;24.52;101831.44;4991573;28;20034;-90
2022/05/03 11:14:21;;;;;;;6.20;4.28;;;;;;;25.98;25.21;101820.56;4992598;28;20088;-93
2022/05/03 11:17:01;;;;;;;8.52;5.07;;;;;;;25.25;26.59;101827.88;4976142;28;20505;-89
2022/05/03 11:19:27;;;;;;;8.15;5.82;;;;;;;25.07;26.74;101816.75;4973572;28;20042;-88
2022/05/03 11:21:53;;;;;;;8.32;5.78;;;;;;;25.28;27.15;101817.66;4998193;28;20026;-88
2022/05/03 11:24:21;;;;;;;9.18;5.35;;;;;;;25.79;26.41;101810.53;4977480;28;20034;-87
2022/05/03 11:26:55;;;;;;;7.03;5.82;;;;;;;25.68;26.37;101809.56;4993344;28;20034;-88
2022/05/03 11:29:21;;;;;;;10.98;6.18;;;;;;;26.48;26.03;101798.84;4977203;28;20033;-88
2022/05/03 11:31:53;;;;;;;6.95;4.60;;;;;;;26.89;24.98;101805.84;4990417;28;20034;-88
2022/05/03 11:34:18;;;;;;;5.47;4.10;;;;;;;26.51;24.92;101807.56;4992679;28;20065;-89
2022/05/03 11:36:46;;;;;;;6.97;4.47;;;;;;;25.84;25.30;101809.13;4996421;28;20026;-88
2022/05/03 11:39:13;;;;;;;5.22;4.10;;;;;;;25.68;26.34;101797.88;4994269;28;20061;-89
2022/05/03 11:41:39;;;;;;;7.53;5.88;;;;;;;26.27;25.18;101797.09;4991575;28;20038;-88
2022/05/03 11:44:05;;;;;;;8.30;6.38;;;;;;;26.37;24.37;101795.25;4972337;28;20508;-87
2022/05/03 11:46:30;;;;;;;8.38;5.80;;;;;;;26.52;25.30;101792.13;4973803;28;20109;-88
2022/05/03 11:49:01;;;;;;;7.18;5.00;;;;;;;27.46;24.62;101794.00;4991092;28;20087;-88
2022/05/03 11:57:11;;;;;;;10.57;6.60;;;;;;;27.88;23.27;101781.84;4992195;28;20114;-89
2022/05/03 11:59:42;;;;;;;7.82;6.07;;;;;;;28.10;23.87;101766.97;4993682;28;20026;-88
2022/05/03 12:02:21;;;;;;;9.18;6.90;;;;;;;27.30;24.56;101769.34;4990579;28;20113;-91
2022/05/03 12:05:12;;;;;;;7.95;6.05;;;;;;;27.07;25.19;101778.81;4975823;28;20022;-89
2022/05/03 12:07:45;;;;;;;6.25;5.63;;;;;;;26.89;25.42;101774.13;4995370;28;20053;-89
2022/05/03 12:10:18;;;;;;;8.50;6.85;;;;;;;26.38;25.16;101769.84;4976771;28;20032;-88
2022/05/03 12:12:44;;;;;;;6.18;4.97;;;;;;;26.82;26.05;101761.31;4975269;28;20030;-90
2022/05/03 12:15:12;;;;;;;8.55;4.45;;;;;;;27.48;24.93;101774.00;4992481;28;20112;-88
2022/05/03 12:18:02;;;;;;;6.78;4.50;;;;;;;27.17;25.16;101760.66;4971297;28;20804;-88